Corpus Christi International Airport Corpus Christi US
ICAO: KCRP
IATA: CRP
Category: Large
Scheduled Services: Yes

Elevation: 44 ft
TransAlt. 18000 ft.

Airport Communications:
APP/DEP:120.9
ATIS:126.8
CLNC DEL:118.55
GND:121.9
SAN ANGELO RDO:122.65
TWR:119.4
UNICOM:122.95

KCRP Zoom In..

If you have problems with the map follow the link
https://www.worldairports.se/pages/airport.php?
ICAO=KCRP

Runways:

(A) RW 13 length 7508 ft width 150 ft
ILS 110.30 / hdg 129

(B) RW 17 length 6080 ft width 150 ft
LOC 110.30 / hdg 172

(C) RW 31 length 7508 ft width 150 ft
LOC 110.30 / hdg 309

(D) RW 35 length 6080 ft width 150 ft
ILS 109.50 / hdg 352

Location; KCRP
Day. 19 / Time. 17.51 Zulu
* Altimeter: 30.45
* Temperature: 15° c. 59°f.
* Wind from: 040° Speed 12 kn with Gusts up to 20 kn.
Dewpoint: 01° c.
Visibility: 10 Statute Miles.
Clouds: Few 4200 ft.
Clouds: Scattered 12000 ft.
Clouds: Scattered 25000 ft.

KCRP 191751Z 04012G20KT 10SM FEW042 SCT120 SCT250 15/01 A3045 RMK AO2 SLP312 T01500006 10150 20089 51006


Wind From 040°
Speed 12 kn.

 
 
jpsmedia worldairports.se 2020   terms of use